Time;durP1;ratioP1;P1;durP2;ratioP2;P2;SDS_P1;SDS_P2;PMS_P1;PMS_P2;Temp;Humidity;BMP_temperature;BMP_pressure;BME280_temperature;BME280_humidity;BME280_pressure;Samples;Min_cycle;Max_cycle;Signal;HPM_P1;HPM_P2
2023/03/02 00:01:30;;;;;;;108.95;56.97;;;-0.80;99.90;;;;;;5036293;28;20204;-84
2023/03/02 00:04:00;;;;;;;111.68;56.60;;;-0.80;99.90;;;;;;5027606;28;20192;-85
2023/03/02 00:06:29;;;;;;;96.78;54.13;;;-0.90;99.90;;;;;;5020266;28;20213;-87
2023/03/02 00:08:59;;;;;;;109.18;55.90;;;-1.00;99.90;;;;;;5028713;28;20204;-87
2023/03/02 00:11:28;;;;;;;115.05;58.80;;;-1.00;99.90;;;;;;5035411;28;20201;-87
2023/03/02 00:13:56;;;;;;;100.15;57.63;;;-1.00;99.90;;;;;;5030207;28;20220;-88
2023/03/02 00:16:23;;;;;;;108.28;57.22;;;-1.00;99.90;;;;;;5029087;28;20209;-87
2023/03/02 00:18:50;;;;;;;103.78;57.50;;;-1.00;99.90;;;;;;5037966;28;20239;-85
2023/03/02 00:21:17;;;;;;;104.40;58.97;;;-1.00;99.90;;;;;;5036032;28;20235;-86
2023/03/02 00:23:44;;;;;;;105.30;58.03;;;-1.00;99.90;;;;;;5039415;28;20208;-86
2023/03/02 00:26:11;;;;;;;98.28;54.47;;;-1.00;99.90;;;;;;5034951;28;20205;-84
2023/03/02 00:28:38;;;;;;;97.50;57.10;;;-0.90;99.90;;;;;;5039690;28;20192;-84
2023/03/02 00:31:05;;;;;;;88.60;52.17;;;-1.20;99.90;;;;;;5046923;28;20215;-86
2023/03/02 00:33:33;;;;;;;112.95;56.47;;;-1.30;99.90;;;;;;5036811;28;20253;-87
2023/03/02 00:36:01;;;;;;;99.70;59.90;;;-1.20;99.90;;;;;;5035860;28;20185;-84
2023/03/02 00:38:28;;;;;;;109.07;61.00;;;-1.20;99.90;;;;;;5036801;28;20196;-84
2023/03/02 00:40:55;;;;;;;109.05;59.63;;;-1.30;99.90;;;;;;5034797;28;20228;-87
2023/03/02 00:46:17;;;;;;;105.40;57.78;;;-1.20;99.90;;;;;;5747646;23;20288;-84
2023/03/02 00:48:45;;;;;;;124.03;65.15;;;-1.20;99.90;;;;;;5030844;28;20212;-85
2023/03/02 00:51:12;;;;;;;103.93;59.10;;;-1.20;99.90;;;;;;5028857;28;20213;-86
2023/03/02 00:53:40;;;;;;;114.95;64.00;;;-1.20;99.90;;;;;;5031269;28;20501;-86
2023/03/02 00:56:08;;;;;;;113.72;60.58;;;-1.10;99.90;;;;;;5029266;28;20274;-82
2023/03/02 00:58:36;;;;;;;132.75;70.63;;;-1.10;99.90;;;;;;5023431;28;20267;-83
2023/03/02 01:01:05;;;;;;;133.43;68.15;;;-1.20;99.90;;;;;;5019373;28;20528;-85
2023/03/02 01:03:33;;;;;;;106.43;62.92;;;-1.10;99.90;;;;;;5030386;28;20207;-85
2023/03/02 01:06:00;;;;;;;117.72;63.30;;;-1.10;99.90;;;;;;5029028;28;20203;-85
2023/03/02 01:08:27;;;;;;;120.00;61.97;;;-1.20;99.90;;;;;;5031251;28;20212;-85
2023/03/02 01:10:54;;;;;;;112.60;62.03;;;-1.20;99.90;;;;;;5029940;28;20208;-85
2023/03/02 01:13:21;;;;;;;115.05;66.70;;;-1.30;99.90;;;;;;5038798;28;20218;-86
2023/03/02 01:15:48;;;;;;;123.88;64.13;;;-1.30;99.90;;;;;;5028957;28;20255;-86
2023/03/02 01:18:16;;;;;;;124.35;66.30;;;-1.20;99.90;;;;;;5035211;28;20232;-85
2023/03/02 01:20:42;;;;;;;111.50;67.70;;;-1.20;99.90;;;;;;5043415;28;20207;-84
2023/03/02 01:23:09;;;;;;;128.70;72.35;;;-1.30;99.90;;;;;;5043022;28;20271;-84
2023/03/02 01:25:37;;;;;;;126.53;65.50;;;-1.30;99.90;;;;;;5028359;28;20509;-83
2023/03/02 01:28:04;;;;;;;117.95;66.28;;;-1.30;99.90;;;;;;5027199;28;20308;-84
2023/03/02 01:30:31;;;;;;;130.77;66.28;;;-1.30;99.90;;;;;;5018463;28;20465;-84
2023/03/02 01:32:58;;;;;;;118.00;67.32;;;-1.30;99.90;;;;;;5023373;28;20252;-84
2023/03/02 01:35:25;;;;;;;124.55;73.45;;;-1.40;99.90;;;;;;5028389;28;20212;-86
2023/03/02 01:37:52;;;;;;;152.85;73.30;;;-1.30;99.90;;;;;;5027620;28;20208;-84
2023/03/02 01:40:19;;;;;;;118.18;71.55;;;-1.30;99.90;;;;;;5027876;28;20272;-85
2023/03/02 01:42:55;;;;;;;126.85;74.55;;;-1.40;99.90;;;;;;5034173;28;20212;-84
2023/03/02 01:45:47;;;;;;;132.45;75.70;;;-1.40;99.90;;;;;;5036678;28;20215;-83
2023/03/02 01:48:18;;;;;;;131.27;72.60;;;-1.40;99.90;;;;;;5048850;28;20467;-83
2023/03/02 01:50:46;;;;;;;125.38;66.47;;;-1.40;99.90;;;;;;5042008;28;20219;-81
2023/03/02 01:53:15;;;;;;;124.60;71.97;;;-1.30;99.90;;;;;;5047384;28;20295;-83
2023/03/02 01:55:44;;;;;;;115.00;70.65;;;-1.40;99.90;;;;;;5037247;28;20208;-84
2023/03/02 01:58:14;;;;;;;121.38;69.82;;;-1.40;99.90;;;;;;5024012;28;20243;-85
2023/03/02 02:00:42;;;;;;;131.13;74.88;;;-1.40;99.90;;;;;;5019867;28;20348;-87
2023/03/02 02:03:23;;;;;;;135.02;70.35;;;-1.40;99.90;;;;;;5028147;28;20216;-83
2023/03/02 02:06:07;;;;;;;119.35;67.70;;;-1.40;99.90;;;;;;5023416;28;20440;-83
2023/03/02 02:08:37;;;;;;;119.85;68.93;;;-1.60;99.90;;;;;;5028771;28;20540;-83
2023/03/02 02:11:05;;;;;;;133.57;71.90;;;-1.70;99.90;;;;;;5027927;28;20209;-82
2023/03/02 02:13:32;;;;;;;128.80;74.70;;;-1.70;99.90;;;;;;5028345;28;20567;-80
2023/03/02 02:15:59;;;;;;;136.00;73.32;;;-1.60;99.90;;;;;;5019530;28;20367;-83
2023/03/02 02:18:26;;;;;;;134.32;74.90;;;-1.60;99.90;;;;;;5030372;28;20259;-82
2023/03/02 02:20:54;;;;;;;140.32;75.32;;;-1.60;99.90;;;;;;5024169;28;20251;-83
2023/03/02 02:23:26;;;;;;;127.32;75.22;;;-1.60;99.90;;;;;;5026357;28;20442;-82
2023/03/02 02:26:22;;;;;;;136.00;75.65;;;-1.60;99.90;;;;;;5027178;28;20255;-81
2023/03/02 02:29:21;;;;;;;130.88;70.18;;;-1.50;99.90;;;;;;5017008;28;20244;-83
2023/03/02 02:31:55;;;;;;;117.93;67.60;;;-1.50;99.90;;;;;;5025094;28;20502;-83
2023/03/02 02:34:30;;;;;;;126.65;73.68;;;-1.50;99.90;;;;;;5033488;28;20238;-83
2023/03/02 02:37:05;;;;;;;124.70;71.05;;;-1.60;99.90;;;;;;5019813;28;20242;-81
2023/03/02 02:39:36;;;;;;;119.85;71.57;;;-1.60;99.90;;;;;;5029410;28;20246;-84
2023/03/02 02:42:10;;;;;;;130.95;69.65;;;-1.60;99.90;;;;;;5023437;28;20243;-84
2023/03/02 02:44:38;;;;;;;131.55;72.43;;;-1.90;99.90;;;;;;5018432;28;20259;-84
2023/03/02 02:47:17;;;;;;;134.18;71.82;;;-1.90;99.90;;;;;;5021531;28;20436;-85
2023/03/02 02:49:46;;;;;;;128.30;70.25;;;-1.80;99.90;;;;;;5018594;28;20247;-85
2023/03/02 02:52:16;;;;;;;125.25;69.30;;;-1.70;99.90;;;;;;5022374;28;20227;-82
2023/03/02 02:54:47;;;;;;;124.90;69.28;;;-1.60;99.90;;;;;;5031498;28;20208;-84
2023/03/02 02:57:16;;;;;;;119.57;68.30;;;-1.60;99.90;;;;;;5029028;28;20204;-83
2023/03/02 02:59:49;;;;;;;115.30;71.65;;;-1.60;99.90;;;;;;5013634;28;20208;-81
2023/03/02 03:02:22;;;;;;;125.10;72.47;;;-1.60;99.90;;;;;;5025492;28;20547;-83
2023/03/02 03:04:49;;;;;;;130.57;72.88;;;-1.70;99.90;;;;;;5022541;28;20200;-83
2023/03/02 03:07:24;;;;;;;128.00;68.03;;;-2.10;99.90;;;;;;5024386;28;20224;-82
2023/03/02 03:09:58;;;;;;;123.10;69.03;;;-2.10;99.90;;;;;;5015915;28;20493;-83
2023/03/02 03:12:25;;;;;;;134.43;73.18;;;-1.90;99.90;;;;;;5028200;28;20215;-82
2023/03/02 03:14:53;;;;;;;130.63;74.88;;;-1.90;99.90;;;;;;5017750;28;20235;-82
2023/03/02 03:17:20;;;;;;;133.13;75.30;;;-1.80;99.90;;;;;;5020034;28;20319;-83
2023/03/02 03:19:47;;;;;;;130.90;72.07;;;-1.70;99.90;;;;;;5017701;28;20205;-81
2023/03/02 03:22:15;;;;;;;129.63;75.00;;;-1.70;99.90;;;;;;5017568;28;20414;-83
2023/03/02 03:24:44;;;;;;;128.35;70.20;;;-1.60;99.90;;;;;;5016012;28;20201;-83
2023/03/02 03:27:14;;;;;;;139.93;72.90;;;-1.70;99.90;;;;;;5025940;28;20250;-82
2023/03/02 03:29:47;;;;;;;130.55;74.00;;;-1.70;99.90;;;;;;5014331;28;20522;-82
2023/03/02 03:32:14;;;;;;;146.60;82.00;;;-1.80;99.90;;;;;;5016597;28;20247;-82
2023/03/02 03:34:42;;;;;;;136.18;74.05;;;-1.90;99.90;;;;;;5029346;28;20220;-86
2023/03/02 03:37:13;;;;;;;132.57;73.78;;;-1.80;99.90;;;;;;5030875;28;20213;-87
2023/03/02 03:39:40;;;;;;;131.57;70.65;;;-1.90;99.90;;;;;;5023007;28;20267;-83
2023/03/02 03:42:07;;;;;;;126.68;73.90;;;-2.00;99.90;;;;;;5020610;28;20259;-82
2023/03/02 03:44:34;;;;;;;130.68;74.32;;;-2.10;99.90;;;;;;5015561;28;20220;-83
2023/03/02 03:47:02;;;;;;;138.10;77.47;;;-2.20;99.90;;;;;;5023117;28;20245;-83
2023/03/02 03:49:29;;;;;;;141.02;77.05;;;-2.10;99.90;;;;;;5026424;28;20204;-81
2023/03/02 03:51:56;;;;;;;137.57;74.72;;;-2.00;99.90;;;;;;5031531;28;20193;-81
2023/03/02 03:54:23;;;;;;;135.40;73.88;;;-2.10;99.90;;;;;;5032296;28;20192;-81
2023/03/02 03:56:50;;;;;;;137.38;77.93;;;-2.10;99.90;;;;;;5042916;28;20223;-82
2023/03/02 03:59:20;;;;;;;131.75;73.47;;;-2.20;99.90;;;;;;5035416;28;20223;-81
2023/03/02 04:01:57;;;;;;;130.15;73.47;;;-2.10;99.90;;;;;;5027260;28;20199;-83
2023/03/02 04:04:28;;;;;;;130.60;72.93;;;-2.10;99.90;;;;;;5029217;28;20283;-83
2023/03/02 04:06:56;;;;;;;135.50;70.60;;;-2.10;99.90;;;;;;5030601;28;20215;-82
2023/03/02 04:09:23;;;;;;;141.68;78.05;;;-2.00;99.90;;;;;;5029253;28;20290;-83
2023/03/02 04:11:52;;;;;;;152.27;77.18;;;-2.10;99.90;;;;;;5026680;28;20247;-81
2023/03/02 04:14:21;;;;;;;140.38;76.72;;;-2.10;99.90;;;;;;5030211;28;20209;-82
2023/03/02 04:16:49;;;;;;;143.05;76.60;;;-2.10;99.90;;;;;;5031047;28;20234;-81
2023/03/02 04:19:16;;;;;;;131.05;74.32;;;-2.20;99.90;;;;;;5037562;28;20614;-83
2023/03/02 04:21:49;;;;;;;139.68;74.82;;;-2.20;99.90;;;;;;5022632;28;20232;-83
2023/03/02 04:24:17;;;;;;;126.40;74.65;;;-2.20;99.90;;;;;;5022629;28;20219;-81
2023/03/02 04:26:45;;;;;;;127.35;78.00;;;-2.20;99.90;;;;;;5023905;28;20246;-83
2023/03/02 04:29:12;;;;;;;148.68;79.90;;;-2.20;99.90;;;;;;5025790;28;20216;-82
2023/03/02 04:31:40;;;;;;;137.90;78.25;;;-2.20;99.90;;;;;;5031552;28;20212;-83
2023/03/02 04:34:07;;;;;;;138.20;78.38;;;-2.20;99.90;;;;;;5026885;28;20211;-82
2023/03/02 04:36:38;;;;;;;155.07;81.95;;;-2.20;99.90;;;;;;5021646;28;20205;-84
2023/03/02 04:39:05;;;;;;;137.25;77.53;;;-2.20;99.90;;;;;;5020904;28;20255;-85
2023/03/02 04:41:33;;;;;;;147.65;85.72;;;-2.20;99.90;;;;;;5033842;28;20244;-83
2023/03/02 04:44:00;;;;;;;144.35;80.43;;;-2.20;99.90;;;;;;5043280;28;20236;-82
2023/03/02 04:46:27;;;;;;;164.35;91.40;;;-2.20;99.90;;;;;;5026768;28;20217;-82
2023/03/02 04:48:54;;;;;;;144.95;83.30;;;-2.20;99.90;;;;;;5028264;28;20452;-82
2023/03/02 04:51:25;;;;;;;139.82;80.60;;;-2.10;99.90;;;;;;5028549;28;20396;-83
2023/03/02 04:54:01;;;;;;;165.48;87.65;;;-2.10;99.90;;;;;;5026290;28;20206;-81
2023/03/02 04:56:28;;;;;;;146.65;85.65;;;-2.20;99.90;;;;;;5014337;28;20201;-81
2023/03/02 04:58:55;;;;;;;160.98;92.15;;;-2.10;99.90;;;;;;5022174;28;20217;-82
2023/03/02 05:01:22;;;;;;;170.30;90.45;;;-2.20;99.90;;;;;;5020975;28;20524;-84
2023/03/02 05:03:49;;;;;;;164.32;91.25;;;-2.30;99.90;;;;;;5025663;28;20205;-84
2023/03/02 05:06:16;;;;;;;159.23;87.88;;;-2.20;99.90;;;;;;5026976;28;20213;-84
2023/03/02 05:08:43;;;;;;;136.02;79.63;;;-2.20;99.90;;;;;;5025668;28;20327;-82
2023/03/02 05:11:20;;;;;;;153.35;84.93;;;-2.20;99.90;;;;;;5028141;28;20205;-83
2023/03/02 05:13:59;;;;;;;149.95;81.20;;;-2.20;99.90;;;;;;5025921;28;20201;-83
2023/03/02 05:16:28;;;;;;;156.73;85.25;;;-2.70;99.90;;;;;;5017658;28;20201;-82
2023/03/02 05:18:55;;;;;;;139.18;80.22;;;-2.80;99.90;;;;;;5016622;28;20208;-83
2023/03/02 05:21:22;;;;;;;146.88;82.80;;;-2.60;99.90;;;;;;5034225;28;20255;-85
2023/03/02 05:23:50;;;;;;;157.02;90.72;;;-2.50;99.90;;;;;;5020804;28;20517;-85
2023/03/02 05:26:17;;;;;;;160.30;89.15;;;-2.50;99.90;;;;;;5020677;28;20255;-85
2023/03/02 05:28:45;;;;;;;150.35;86.38;;;-2.50;99.90;;;;;;5025640;28;20219;-85
2023/03/02 05:31:22;;;;;;;131.57;79.65;;;-2.60;99.90;;;;;;5018781;28;20213;-84
2023/03/02 05:33:49;;;;;;;150.88;85.25;;;-2.60;99.90;;;;;;5020091;28;20201;-83
2023/03/02 05:36:16;;;;;;;149.77;83.78;;;-2.50;99.90;;;;;;5020397;28;20205;-82
2023/03/02 05:38:46;;;;;;;145.00;85.43;;;-2.30;99.90;;;;;;5020540;28;20208;-84
2023/03/02 05:41:13;;;;;;;133.55;82.75;;;-2.30;99.90;;;;;;5025678;28;20236;-84
2023/03/02 05:43:40;;;;;;;172.63;90.65;;;-2.20;99.90;;;;;;5018741;28;20280;-82
2023/03/02 05:46:07;;;;;;;161.27;88.47;;;-2.10;99.90;;;;;;5014098;28;20217;-83
2023/03/02 05:48:35;;;;;;;159.07;90.65;;;-2.00;99.90;;;;;;5024201;28;20209;-83
2023/03/02 05:51:02;;;;;;;167.77;86.47;;;-2.40;99.90;;;;;;5020442;28;20205;-83
2023/03/02 05:53:29;;;;;;;198.27;101.78;;;-2.40;99.90;;;;;;5011643;28;20304;-81
2023/03/02 05:55:55;;;;;;;151.07;89.72;;;-2.30;99.90;;;;;;5014702;28;20204;-82
2023/03/02 05:58:22;;;;;;;175.90;91.82;;;-2.20;99.90;;;;;;5014884;28;20258;-83
2023/03/02 06:00:50;;;;;;;170.52;93.60;;;-2.10;99.90;;;;;;5027597;28;20277;-83
2023/03/02 06:03:17;;;;;;;182.05;98.15;;;-1.90;99.90;;;;;;5025528;28;20211;-83
2023/03/02 06:05:49;;;;;;;161.88;89.40;;;-1.90;99.90;;;;;;5012797;28;20247;-82
2023/03/02 06:08:18;;;;;;;163.57;94.82;;;-1.80;99.90;;;;;;5019262;28;20212;-83
2023/03/02 06:10:45;;;;;;;148.60;82.47;;;-2.00;99.90;;;;;;5025852;28;20205;-84
2023/03/02 06:13:13;;;;;;;158.07;89.38;;;-2.00;99.90;;;;;;5028702;28;20239;-85
2023/03/02 06:15:41;;;;;;;163.35;92.30;;;-1.80;99.90;;;;;;5021372;28;20220;-84
2023/03/02 06:18:11;;;;;;;163.43;86.57;;;-1.70;99.90;;;;;;5024552;28;20276;-84
2023/03/02 06:20:39;;;;;;;159.05;91.43;;;-1.60;99.90;;;;;;5006898;28;20228;-82
2023/03/02 06:23:06;;;;;;;154.05;91.57;;;-1.50;99.90;;;;;;5023883;28;20208;-82
2023/03/02 06:25:34;;;;;;;190.88;97.90;;;-1.60;99.90;;;;;;5022374;28;20197;-82
2023/03/02 06:28:01;;;;;;;176.45;99.22;;;-1.60;99.90;;;;;;5016291;28;20208;-84
2023/03/02 06:30:29;;;;;;;184.40;105.07;;;-1.20;99.90;;;;;;5023125;28;20215;-84
2023/03/02 06:32:56;;;;;;;176.05;107.65;;;-0.60;99.90;;;;;;5026295;28;20213;-84
2023/03/02 06:35:23;;;;;;;160.40;91.18;;;0.00;99.90;;;;;;5025227;28;20220;-82
2023/03/02 06:37:50;;;;;;;128.23;76.13;;;0.60;99.90;;;;;;5018274;28;20215;-82
2023/03/02 06:40:20;;;;;;;137.00;75.43;;;1.00;99.90;;;;;;5022822;28;20515;-81
2023/03/02 06:42:47;;;;;;;141.27;76.25;;;1.20;99.90;;;;;;5026046;28;20236;-81
2023/03/02 06:45:14;;;;;;;142.75;76.05;;;1.60;99.90;;;;;;5016646;28;20212;-81
2023/03/02 06:47:41;;;;;;;121.47;64.45;;;2.00;99.90;;;;;;5024729;28;20217;-83
2023/03/02 06:50:09;;;;;;;122.93;65.75;;;2.60;99.90;;;;;;5018224;28;20452;-82
2023/03/02 06:52:36;;;;;;;121.90;63.97;;;3.20;99.90;;;;;;5025451;28;20455;-80
2023/03/02 06:55:03;;;;;;;130.75;70.10;;;3.70;99.90;;;;;;5034409;28;20246;-82
2023/03/02 06:57:32;;;;;;;136.75;69.35;;;3.80;99.90;;;;;;5026794;28;20208;-85
2023/03/02 07:00:08;;;;;;;118.18;61.95;;;3.40;99.90;;;;;;5025028;28;20327;-83
2023/03/02 07:02:35;;;;;;;126.72;65.13;;;3.30;99.90;;;;;;5014905;28;20559;-81
2023/03/02 07:05:03;;;;;;;129.98;67.68;;;3.30;99.90;;;;;;5025149;28;20207;-83
2023/03/02 07:07:30;;;;;;;127.35;70.45;;;3.10;99.90;;;;;;5020617;28;20207;-82
2023/03/02 07:09:57;;;;;;;122.18;69.63;;;3.20;99.90;;;;;;5029834;28;20529;-82
2023/03/02 07:12:24;;;;;;;120.45;64.03;;;3.30;99.90;;;;;;5020941;28;20208;-81
2023/03/02 07:14:51;;;;;;;129.93;67.50;;;3.50;99.90;;;;;;5025574;28;20238;-82
2023/03/02 07:17:18;;;;;;;119.43;63.83;;;3.70;99.90;;;;;;5029676;28;20223;-80
2023/03/02 07:19:45;;;;;;;110.03;61.53;;;4.00;99.90;;;;;;5022593;28;20247;-80
2023/03/02 07:22:12;;;;;;;128.13;63.45;;;4.70;99.90;;;;;;5028299;28;20277;-80
2023/03/02 07:24:39;;;;;;;108.32;62.15;;;5.00;99.90;;;;;;5029407;28;20417;-79
2023/03/02 07:27:06;;;;;;;118.00;61.45;;;5.40;99.90;;;;;;5029569;28;20216;-81
2023/03/02 07:29:33;;;;;;;113.82;64.40;;;5.40;99.90;;;;;;5017672;28;20382;-82
2023/03/02 07:32:00;;;;;;;102.32;60.67;;;5.50;99.90;;;;;;5028048;28;20247;-81
2023/03/02 07:34:27;;;;;;;108.57;63.00;;;5.50;99.90;;;;;;5024385;28;20422;-80
2023/03/02 07:36:54;;;;;;;105.28;58.90;;;5.90;99.90;;;;;;5028795;28;20205;-81
2023/03/02 07:39:21;;;;;;;101.93;62.95;;;6.50;99.90;;;;;;5025267;28;20209;-83
2023/03/02 07:41:48;;;;;;;101.40;59.58;;;7.90;99.90;;;;;;5027629;28;20262;-78
2023/03/02 07:44:15;;;;;;;101.68;62.00;;;9.20;99.90;;;;;;5017442;28;20236;-79
2023/03/02 07:46:42;;;;;;;102.88;58.50;;;10.30;99.90;;;;;;5015359;28;20216;-82
2023/03/02 07:49:09;;;;;;;103.10;59.88;;;11.40;99.90;;;;;;5021396;28;20212;-81
2023/03/02 07:51:35;;;;;;;103.18;61.55;;;12.50;99.90;;;;;;5021293;28;20263;-82
2023/03/02 07:54:03;;;;;;;106.47;61.38;;;13.00;99.90;;;;;;5021597;28;20215;-79
2023/03/02 07:56:30;;;;;;;102.80;58.92;;;13.40;99.90;;;;;;5023718;28;20309;-81
2023/03/02 07:58:58;;;;;;;96.53;59.22;;;13.90;99.90;;;;;;5022740;28;20211;-80
2023/03/02 08:01:24;;;;;;;91.28;58.05;;;14.80;99.90;;;;;;5019884;28;20574;-79
2023/03/02 08:03:52;;;;;;;92.10;60.33;;;15.50;99.90;;;;;;5019151;28;20209;-80
2023/03/02 08:06:19;;;;;;;91.97;58.70;;;15.60;99.90;;;;;;5021941;28;20460;-79
2023/03/02 08:08:46;;;;;;;88.70;59.87;;;15.60;99.30;;;;;;5014766;28;20829;-79
2023/03/02 08:11:16;;;;;;;92.17;55.30;;;15.70;98.30;;;;;;5007877;28;20676;-80
2023/03/02 08:13:44;;;;;;;98.17;58.53;;;15.70;96.30;;;;;;5021722;28;20793;-81
2023/03/02 08:16:13;;;;;;;90.07;58.00;;;16.30;95.80;;;;;;5020235;28;20452;-80
2023/03/02 08:18:41;;;;;;;86.00;59.97;;;17.00;92.30;;;;;;5031085;28;20831;-80
2023/03/02 08:21:17;;;;;;;98.40;62.77;;;17.80;85.60;;;;;;5028121;28;20445;-80
2023/03/02 08:23:44;;;;;;;88.20;55.63;;;18.20;80.90;;;;;;5025991;28;20807;-79
2023/03/02 08:26:13;;;;;;;77.20;57.90;;;18.40;76.20;;;;;;5014771;28;20824;-79
2023/03/02 08:28:43;;;;;;;98.17;58.23;;;18.50;73.30;;;;;;5029379;28;20504;-80
2023/03/02 08:31:12;;;;;;;90.77;59.47;;;17.80;74.30;;;;;;5024030;28;20508;-80
2023/03/02 08:33:39;;;;;;;82.13;55.57;;;16.80;77.90;;;;;;5028697;28;20477;-82
2023/03/02 08:36:11;;;;;;;85.17;57.43;;;16.50;84.80;;;;;;5042307;28;20450;-81
2023/03/02 08:38:38;;;;;;;84.13;58.17;;;16.80;81.10;;;;;;5037659;28;20433;-79
2023/03/02 08:41:09;;;;;;;77.10;50.70;;;16.80;79.30;;;;;;5042867;28;20473;-81
2023/03/02 08:43:36;;;;;;;74.43;49.90;;;17.40;77.00;;;;;;5034348;28;20823;-82
2023/03/02 08:46:03;;;;;;;67.93;46.03;;;18.10;73.40;;;;;;5029391;28;20796;-79
2023/03/02 08:48:30;;;;;;;64.03;43.20;;;17.10;70.60;;;;;;5028971;28;20504;-78
2023/03/02 08:51:04;;;;;;;67.30;44.73;;;16.30;78.50;;;;;;5030878;28;20434;-79
2023/03/02 08:53:35;;;;;;;69.93;45.13;;;15.90;81.20;;;;;;5023087;28;20454;-80
2023/03/02 08:56:02;;;;;;;74.83;46.63;;;15.50;78.20;;;;;;5018580;28;20789;-81
2023/03/02 08:58:29;;;;;;;61.83;40.43;;;15.00;81.40;;;;;;5026453;28;20533;-80
2023/03/02 09:00:57;;;;;;;69.07;42.70;;;15.10;80.10;;;;;;5023005;28;20748;-81
2023/03/02 09:03:24;;;;;;;67.60;42.67;;;15.30;84.10;;;;;;5021157;28;20492;-81
2023/03/02 09:05:51;;;;;;;66.37;41.77;;;15.80;80.70;;;;;;5023985;28;20493;-81
2023/03/02 09:08:18;;;;;;;48.30;29.87;;;16.50;77.80;;;;;;5033061;28;20782;-81
2023/03/02 09:10:45;;;;;;;50.20;34.50;;;15.40;73.80;;;;;;5018614;28;20450;-81
2023/03/02 09:13:12;;;;;;;51.93;33.07;;;15.60;79.90;;;;;;5029195;28;20466;-81
2023/03/02 09:15:39;;;;;;;50.13;35.40;;;14.30;82.70;;;;;;5023588;28;20611;-81
2023/03/02 09:18:06;;;;;;;44.47;31.00;;;15.10;81.90;;;;;;5018306;28;20505;-82
2023/03/02 09:20:33;;;;;;;44.30;30.60;;;15.90;76.20;;;;;;5026237;28;20705;-81
2023/03/02 09:23:00;;;;;;;49.70;31.30;;;14.70;80.80;;;;;;5020207;28;20493;-83
2023/03/02 09:25:27;;;;;;;54.93;33.93;;;14.00;80.20;;;;;;5018396;28;20814;-81
2023/03/02 09:27:54;;;;;;;43.28;27.55;;;14.00;85.80;;;;;;5028325;28;20450;-81
2023/03/02 09:30:21;;;;;;;42.83;25.92;;;13.20;88.60;;;;;;5030652;28;20211;-82
2023/03/02 09:32:47;;;;;;;45.90;29.38;;;12.00;91.90;;;;;;5026963;28;20198;-83
2023/03/02 09:35:15;;;;;;;38.05;24.83;;;11.10;98.00;;;;;;5025687;28;20483;-82
2023/03/02 09:37:42;;;;;;;51.25;31.27;;;10.10;99.90;;;;;;5024334;28;20456;-82
2023/03/02 09:40:20;;;;;;;39.38;25.50;;;9.40;99.90;;;;;;5027174;28;20212;-83
2023/03/02 09:42:52;;;;;;;45.15;29.55;;;8.60;99.90;;;;;;5025337;28;20290;-84
2023/03/02 09:45:19;;;;;;;46.00;27.77;;;8.20;99.90;;;;;;5027204;28;20274;-83
2023/03/02 09:47:51;;;;;;;63.00;31.90;;;8.10;99.90;;;;;;5031161;28;20250;-80
2023/03/02 09:50:38;;;;;;;69.10;34.28;;;7.90;99.90;;;;;;5015069;28;20216;-83
2023/03/02 09:53:16;;;;;;;41.42;25.38;;;7.70;99.90;;;;;;5025476;28;20771;-83
2023/03/02 09:55:46;;;;;;;42.47;23.35;;;7.70;99.90;;;;;;5018498;28;20212;-84
2023/03/02 09:58:19;;;;;;;48.60;26.50;;;7.50;99.90;;;;;;5032696;28;20408;-83
2023/03/02 10:00:47;;;;;;;43.28;27.15;;;7.10;99.90;;;;;;5021691;28;20267;-81
2023/03/02 10:03:24;;;;;;;43.50;26.83;;;7.10;99.90;;;;;;5023783;28;20240;-83
2023/03/02 10:05:53;;;;;;;42.35;24.92;;;7.20;99.90;;;;;;5029133;28;20219;-82
2023/03/02 10:08:29;;;;;;;44.78;25.08;;;7.20;99.90;;;;;;5034136;28;20237;-83
2023/03/02 10:11:15;;;;;;;39.30;23.77;;;7.10;99.90;;;;;;5020643;28;20210;-85
2023/03/02 10:14:00;;;;;;;36.85;21.23;;;6.80;99.90;;;;;;5028406;28;20649;-81
2023/03/02 10:16:47;;;;;;;43.30;26.15;;;6.70;99.90;;;;;;5016487;28;20341;-82
2023/03/02 10:19:32;;;;;;;38.47;25.98;;;6.70;99.90;;;;;;5016009;28;20247;-83
2023/03/02 10:22:16;;;;;;;42.88;25.90;;;6.60;99.90;;;;;;5025122;28;20238;-83
2023/03/02 10:24:53;;;;;;;46.00;26.00;;;6.80;99.90;;;;;;5017522;28;20251;-82
2023/03/02 10:27:32;;;;;;;34.13;20.33;;;6.60;99.90;;;;;;5029002;28;20213;-82
2023/03/02 10:30:20;;;;;;;36.72;24.75;;;6.80;99.90;;;;;;5024811;28;20207;-82
2023/03/02 10:32:49;;;;;;;36.47;21.65;;;6.90;99.90;;;;;;5025652;28;20379;-81
2023/03/02 10:35:22;;;;;;;40.03;22.10;;;7.20;99.90;;;;;;5034395;28;20206;-82
2023/03/02 10:38:11;;;;;;;34.38;22.45;;;7.40;99.90;;;;;;5021429;28;20210;-83
2023/03/02 10:40:55;;;;;;;37.30;23.67;;;7.40;99.90;;;;;;5028679;28;20231;-82
2023/03/02 10:43:51;;;;;;;38.67;23.13;;;7.40;99.90;;;;;;5021394;28;20227;-81
2023/03/02 10:46:18;;;;;;;38.22;21.30;;;7.90;99.90;;;;;;5013080;28;20640;-81
2023/03/02 10:48:58;;;;;;;37.38;21.75;;;8.20;99.90;;;;;;5022945;28;20213;-82
2023/03/02 10:51:33;;;;;;;28.30;19.75;;;8.10;99.90;;;;;;5020494;28;20263;-82
2023/03/02 10:54:10;;;;;;;45.80;26.42;;;8.10;99.90;;;;;;5017039;28;20230;-82
2023/03/02 10:56:40;;;;;;;42.85;24.38;;;8.10;99.90;;;;;;5023012;28;20219;-83
2023/03/02 10:59:28;;;;;;;46.72;24.60;;;7.90;99.90;;;;;;5032880;28;20219;-80
2023/03/02 11:02:10;;;;;;;43.55;24.80;;;7.90;99.90;;;;;;5021290;28;20213;-82
2023/03/02 11:04:37;;;;;;;37.10;24.60;;;7.90;99.90;;;;;;5025642;28;20228;-81
2023/03/02 11:07:16;;;;;;;49.30;26.65;;;7.70;99.90;;;;;;5024716;28;20548;-80
2023/03/02 11:09:56;;;;;;;45.95;27.48;;;7.60;99.90;;;;;;5020695;28;20289;-81
2023/03/02 11:12:23;;;;;;;42.22;24.80;;;7.50;99.90;;;;;;5020249;28;20316;-80
2023/03/02 11:15:20;;;;;;;34.85;23.30;;;7.70;99.90;;;;;;5026060;28;20255;-81
2023/03/02 11:18:00;;;;;;;39.55;24.80;;;7.60;99.90;;;;;;5027503;28;20419;-81
2023/03/02 11:20:32;;;;;;;33.55;21.85;;;7.50;99.90;;;;;;5025555;28;20223;-82
2023/03/02 11:23:13;;;;;;;33.30;22.05;;;7.50;99.90;;;;;;5019143;28;20451;-82
2023/03/02 11:25:50;;;;;;;36.35;23.10;;;7.60;99.90;;;;;;5030522;28;20238;-83
2023/03/02 11:28:26;;;;;;;40.53;24.13;;;7.40;99.90;;;;;;5016787;28;20241;-82
2023/03/02 11:30:55;;;;;;;38.72;20.13;;;7.40;99.90;;;;;;5030484;28;20217;-81
2023/03/02 11:33:36;;;;;;;33.53;19.85;;;7.50;99.90;;;;;;5030271;28;20267;-82
2023/03/02 11:36:21;;;;;;;33.20;21.95;;;7.60;99.90;;;;;;5017990;28;20412;-80
2023/03/02 11:38:53;;;;;;;31.40;21.30;;;7.80;99.90;;;;;;5013765;28;20509;-81
2023/03/02 11:41:28;;;;;;;32.65;21.48;;;8.00;99.90;;;;;;5020970;28;20231;-80
2023/03/02 11:44:00;;;;;;;38.67;21.05;;;8.20;99.90;;;;;;5016797;28;20238;-82
2023/03/02 11:46:32;;;;;;;30.58;22.42;;;7.90;99.90;;;;;;5029001;28;20270;-84
2023/03/02 11:49:22;;;;;;;38.65;24.20;;;7.80;99.90;;;;;;5034879;28;20214;-80
2023/03/02 11:51:59;;;;;;;39.60;22.42;;;7.60;99.90;;;;;;5026300;28;20219;-82
2023/03/02 11:55:05;;;;;;;29.25;18.13;;;7.90;99.90;;;;;;5027537;28;20238;-81
2023/03/02 11:57:36;;;;;;;34.20;19.45;;;7.70;99.90;;;;;;5017271;28;20212;-81
2023/03/02 12:00:14;;;;;;;34.72;20.17;;;8.00;99.90;;;;;;5028902;28;20267;-80
2023/03/02 12:02:41;;;;;;;33.33;22.10;;;8.10;99.90;;;;;;5013966;28;20239;-79
2023/03/02 12:05:27;;;;;;;39.40;24.65;;;8.10;99.90;;;;;;5026945;28;20215;-82
2023/03/02 12:08:00;;;;;;;54.13;24.98;;;7.90;99.90;;;;;;5027442;28;20230;-81
2023/03/02 12:10:33;;;;;;;33.53;21.40;;;7.60;99.90;;;;;;5033681;28;20232;-82
2023/03/02 12:13:09;;;;;;;35.78;21.80;;;7.40;99.90;;;;;;5017090;28;20204;-81
2023/03/02 12:15:38;;;;;;;34.25;21.55;;;7.30;99.90;;;;;;5025606;28;20249;-79
2023/03/02 12:18:30;;;;;;;35.53;23.83;;;7.40;99.90;;;;;;5030056;28;20247;-82
2023/03/02 12:21:09;;;;;;;33.38;19.20;;;7.40;99.90;;;;;;5031684;28;20206;-82
2023/03/02 12:23:49;;;;;;;34.15;22.58;;;7.50;99.90;;;;;;5020875;28;20269;-81
2023/03/02 12:26:19;;;;;;;39.42;23.17;;;7.70;99.90;;;;;;5019199;28;20390;-82
2023/03/02 12:29:25;;;;;;;29.88;19.55;;;7.60;99.90;;;;;;5021605;28;20207;-79
2023/03/02 12:31:54;;;;;;;37.67;22.13;;;7.80;99.90;;;;;;5026152;28;20199;-81
2023/03/02 12:34:33;;;;;;;39.58;20.77;;;7.70;99.90;;;;;;5023920;28;20226;-83
2023/03/02 12:37:14;;;;;;;41.97;21.45;;;7.50;99.90;;;;;;5028376;28;20435;-80
2023/03/02 12:40:09;;;;;;;39.92;22.30;;;7.50;99.90;;;;;;5016958;28;20216;-83
2023/03/02 12:43:09;;;;;;;31.63;18.77;;;7.40;99.90;;;;;;5017841;28;20608;-80
2023/03/02 12:45:49;;;;;;;31.27;19.67;;;7.40;99.90;;;;;;5027298;28;20492;-80